Time;durP1;ratioP1;P1;durP2;ratioP2;P2;SDS_P1;SDS_P2;PMS_P1;PMS_P2;Temp;Humidity;BMP_temperature;BMP_pressure;BME280_temperature;BME280_humidity;BME280_pressure;Samples;Min_cycle;Max_cycle;Signal;HPM_P1;HPM_P2
2022/12/29 00:01:22;;;;;;;3.08;1.85;;;;;;;;;;7389149;19;20337;-72
2022/12/29 00:03:48;;;;;;;3.65;1.85;;;;;;;;;;7388157;19;20441;-72
2022/12/29 00:06:13;;;;;;;2.90;1.77;;;;;;;;;;7391023;19;20003;-72
2022/12/29 00:08:41;;;;;;;5.43;2.10;;;;;;;;;;7391167;19;20002;-71
2022/12/29 00:11:07;;;;;;;3.75;2.00;;;;;;;;;;7390550;19;20132;-72
2022/12/29 00:16:17;;;;;;;4.57;2.40;;;;;;;;;;7390873;19;20027;-71
2022/12/29 00:18:42;;;;;;;3.97;2.10;;;;;;;;;;7390195;19;19994;-73
2022/12/29 00:35:09;;;;;;;3.22;1.73;;;;;;;;;;7394823;19;20013;-71
2022/12/29 00:45:52;;;;;;;2.95;1.63;;;;;;;;;;7397879;19;20019;-71
2022/12/29 00:49:29;;;;;;;2.85;1.70;;;;;;;;;;7396026;19;20003;-72
2022/12/29 00:51:03;;;;;;;3.05;1.70;;;;;;;;;;7396172;19;20002;-71
2022/12/29 00:53:28;;;;;;;3.88;2.08;;;;;;;;;;7396204;19;20332;-72
2022/12/29 00:55:53;;;;;;;2.60;1.65;;;;;;;;;;7397241;19;20023;-71
2022/12/29 00:58:19;;;;;;;1.77;1.40;;;;;;;;;;7399052;19;20002;-72
2022/12/29 01:00:44;;;;;;;4.20;1.60;;;;;;;;;;7396052;19;19999;-72
2022/12/29 01:03:09;;;;;;;2.83;1.65;;;;;;;;;;7393967;19;19994;-72
2022/12/29 01:05:37;;;;;;;2.90;1.65;;;;;;;;;;7397455;19;20003;-71
2022/12/29 01:08:03;;;;;;;2.35;1.63;;;;;;;;;;7395304;19;20516;-71
2022/12/29 01:10:28;;;;;;;4.32;1.90;;;;;;;;;;7396443;19;20019;-71
2022/12/29 01:12:54;;;;;;;4.15;1.80;;;;;;;;;;7392988;19;19998;-73
2022/12/29 01:15:19;;;;;;;2.88;1.60;;;;;;;;;;7396819;19;19995;-72
2022/12/29 01:17:45;;;;;;;3.70;1.50;;;;;;;;;;7394730;19;20019;-71
2022/12/29 01:20:11;;;;;;;3.38;1.70;;;;;;;;;;7392805;19;20006;-72
2022/12/29 01:22:36;;;;;;;3.35;1.60;;;;;;;;;;7395273;19;20361;-72
2022/12/29 01:25:02;;;;;;;2.83;1.73;;;;;;;;;;7396335;19;20022;-71
2022/12/29 01:27:28;;;;;;;2.90;1.70;;;;;;;;;;7394391;19;19995;-71
2022/12/29 01:29:53;;;;;;;3.45;1.60;;;;;;;;;;7395058;19;20008;-72
2022/12/29 01:32:18;;;;;;;3.10;1.75;;;;;;;;;;7394005;19;20002;-71
2022/12/29 01:34:44;;;;;;;2.45;1.70;;;;;;;;;;7395281;19;19995;-71
2022/12/29 01:37:09;;;;;;;3.33;1.60;;;;;;;;;;7396544;19;19999;-72
2022/12/29 01:39:34;;;;;;;3.30;1.60;;;;;;;;;;7394747;19;20460;-72
2022/12/29 01:42:00;;;;;;;3.83;1.80;;;;;;;;;;7395669;19;20015;-71
2022/12/29 01:44:52;;;;;;;1.98;1.42;;;;;;;;;;7403317;19;20494;-71
2022/12/29 01:47:30;;;;;;;4.75;1.60;;;;;;;;;;7401871;19;20038;-71
2022/12/29 01:49:58;;;;;;;3.15;1.40;;;;;;;;;;7404596;19;20003;-72
2022/12/29 01:52:29;;;;;;;1.67;1.30;;;;;;;;;;7397188;19;20385;-72
2022/12/29 01:54:55;;;;;;;3.37;1.80;;;;;;;;;;7395560;19;19998;-73
2022/12/29 01:57:27;;;;;;;2.85;1.50;;;;;;;;;;7393184;19;20603;-72
2022/12/29 01:59:57;;;;;;;2.08;1.52;;;;;;;;;;7396829;19;20070;-71
2022/12/29 02:02:24;;;;;;;3.07;1.63;;;;;;;;;;7392003;19;20014;-75
2022/12/29 02:04:50;;;;;;;2.13;1.30;;;;;;;;;;7394084;19;20002;-74
2022/12/29 02:07:21;;;;;;;2.63;1.60;;;;;;;;;;7394823;19;19999;-75
2022/12/29 02:09:49;;;;;;;4.32;1.42;;;;;;;;;;7393461;19;20005;-74
2022/12/29 02:12:19;;;;;;;2.13;1.33;;;;;;;;;;7391207;19;19999;-74
2022/12/29 02:14:45;;;;;;;1.38;1.20;;;;;;;;;;7391765;19;19999;-75
2022/12/29 02:17:48;;;;;;;4.63;1.50;;;;;;;;;;7394804;19;20002;-75
2022/12/29 02:20:30;;;;;;;3.00;1.50;;;;;;;;;;7393000;19;20486;-73
2022/12/29 02:23:11;;;;;;;6.70;1.50;;;;;;;;;;7392931;19;20111;-73
2022/12/29 02:25:54;;;;;;;2.90;1.33;;;;;;;;;;7394157;19;19991;-73
2022/12/29 02:28:22;;;;;;;2.58;1.33;;;;;;;;;;7394015;19;19995;-73
2022/12/29 02:31:07;;;;;;;2.85;1.60;;;;;;;;;;7393651;19;19994;-74
2022/12/29 02:33:57;;;;;;;2.30;1.40;;;;;;;;;;7393039;19;20000;-74
2022/12/29 02:36:54;;;;;;;2.63;1.48;;;;;;;;;;7394217;19;19999;-73
2022/12/29 02:39:40;;;;;;;1.92;1.05;;;;;;;;;;7392627;19;20463;-74
2022/12/29 02:42:16;;;;;;;2.35;1.40;;;;;;;;;;7392053;19;20002;-74
2022/12/29 02:45:00;;;;;;;2.97;1.30;;;;;;;;;;7392466;19;20334;-74
2022/12/29 02:47:56;;;;;;;2.03;1.20;;;;;;;;;;7393437;19;20467;-75
2022/12/29 02:50:39;;;;;;;2.15;1.35;;;;;;;;;;7391402;19;20007;-74
2022/12/29 02:53:15;;;;;;;1.92;1.55;;;;;;;;;;7392462;19;20384;-75
2022/12/29 02:55:48;;;;;;;1.70;1.23;;;;;;;;;;7393024;19;20024;-74
2022/12/29 02:58:18;;;;;;;1.52;1.30;;;;;;;;;;7392859;19;19991;-75
2022/12/29 03:01:08;;;;;;;1.90;1.13;;;;;;;;;;7394035;19;19991;-75
2022/12/29 03:03:46;;;;;;;2.43;1.30;;;;;;;;;;7391332;19;19994;-73
2022/12/29 03:06:26;;;;;;;2.25;1.00;;;;;;;;;;7394672;19;20015;-74
2022/12/29 03:09:02;;;;;;;3.43;1.37;;;;;;;;;;7392953;19;20018;-72
2022/12/29 03:17:28;;;;;;;1.63;1.13;;;;;;;;;;7392945;19;20031;-74
2022/12/29 03:20:01;;;;;;;2.22;1.38;;;;;;;;;;7391408;19;20355;-75
2022/12/29 03:22:32;;;;;;;2.75;1.58;;;;;;;;;;7390658;19;20008;-75
2022/12/29 03:25:05;;;;;;;6.18;1.60;;;;;;;;;;7392874;19;20384;-75
2022/12/29 03:27:43;;;;;;;3.88;1.55;;;;;;;;;;7392556;19;20058;-74
2022/12/29 03:30:09;;;;;;;2.75;1.52;;;;;;;;;;7392726;19;20451;-74
2022/12/29 03:32:41;;;;;;;2.67;1.60;;;;;;;;;;7389165;19;19995;-75
2022/12/29 03:35:09;;;;;;;2.15;1.20;;;;;;;;;;7392270;19;20028;-75
2022/12/29 03:37:41;;;;;;;6.15;1.58;;;;;;;;;;7392086;19;19999;-74
2022/12/29 03:40:07;;;;;;;1.92;1.35;;;;;;;;;;7390223;19;19998;-74
2022/12/29 03:42:35;;;;;;;2.60;1.50;;;;;;;;;;7389140;19;20025;-74
2022/12/29 03:45:01;;;;;;;2.65;1.25;;;;;;;;;;7391546;19;19991;-74
2022/12/29 03:47:26;;;;;;;4.38;1.67;;;;;;;;;;7391373;19;20483;-74
2022/12/29 03:49:52;;;;;;;6.60;1.85;;;;;;;;;;7393911;19;19991;-75
2022/12/29 03:52:17;;;;;;;2.92;1.50;;;;;;;;;;7390769;19;20405;-74
2022/12/29 03:54:43;;;;;;;1.63;1.38;;;;;;;;;;7390045;19;20006;-74
2022/12/29 03:57:10;;;;;;;4.72;1.75;;;;;;;;;;7391315;19;20452;-76
2022/12/29 03:59:36;;;;;;;1.90;1.27;;;;;;;;;;7388783;19;20006;-73
2022/12/29 04:02:01;;;;;;;2.38;1.65;;;;;;;;;;7390012;19;19995;-75
2022/12/29 04:04:26;;;;;;;2.55;1.60;;;;;;;;;;7389411;19;20034;-74
2022/12/29 04:06:52;;;;;;;5.45;2.72;;;;;;;;;;7392834;19;20092;-74
2022/12/29 04:09:17;;;;;;;3.45;1.70;;;;;;;;;;7398475;19;20002;-75
2022/12/29 04:11:42;;;;;;;3.90;1.50;;;;;;;;;;7403968;19;20008;-75
2022/12/29 04:14:08;;;;;;;5.07;1.50;;;;;;;;;;7403980;19;20099;-74
2022/12/29 04:16:35;;;;;;;3.70;1.35;;;;;;;;;;7404805;19;20001;-74
2022/12/29 04:19:03;;;;;;;2.80;1.58;;;;;;;;;;7404347;19;20057;-75
2022/12/29 04:21:28;;;;;;;2.08;1.50;;;;;;;;;;7404646;19;20006;-75
2022/12/29 04:23:54;;;;;;;2.47;1.50;;;;;;;;;;7403359;19;19994;-74
2022/12/29 04:26:19;;;;;;;3.40;1.88;;;;;;;;;;7404743;19;20014;-75
2022/12/29 04:28:44;;;;;;;2.92;1.73;;;;;;;;;;7404816;19;19994;-75
2022/12/29 04:31:10;;;;;;;4.57;1.70;;;;;;;;;;7404229;19;19995;-75
2022/12/29 04:33:35;;;;;;;3.88;1.70;;;;;;;;;;7402660;19;20110;-75
2022/12/29 04:36:00;;;;;;;2.08;1.33;;;;;;;;;;7407690;19;20050;-74
2022/12/29 04:38:25;;;;;;;2.80;1.40;;;;;;;;;;7402700;19;19995;-75
2022/12/29 04:40:51;;;;;;;7.97;1.63;;;;;;;;;;7403711;19;20015;-76
2022/12/29 04:43:18;;;;;;;3.55;1.60;;;;;;;;;;7402833;19;19998;-73
2022/12/29 04:45:45;;;;;;;3.45;1.45;;;;;;;;;;7402865;19;20002;-74
2022/12/29 04:48:11;;;;;;;4.55;1.58;;;;;;;;;;7404470;19;20066;-74
2022/12/29 04:50:36;;;;;;;4.95;1.65;;;;;;;;;;7404976;19;20028;-73
2022/12/29 04:53:02;;;;;;;2.28;1.50;;;;;;;;;;7403522;19;20428;-73
2022/12/29 04:55:27;;;;;;;3.15;1.73;;;;;;;;;;7404422;19;20011;-75
2022/12/29 04:57:52;;;;;;;5.57;1.60;;;;;;;;;;7404463;19;19991;-75
2022/12/29 05:00:18;;;;;;;1.73;1.15;;;;;;;;;;7402296;19;19998;-75
2022/12/29 05:02:44;;;;;;;1.65;1.30;;;;;;;;;;7398682;19;19999;-75
2022/12/29 05:05:09;;;;;;;3.45;1.40;;;;;;;;;;7404285;19;20010;-75
2022/12/29 05:07:34;;;;;;;4.03;1.60;;;;;;;;;;7405487;19;19990;-73
2022/12/29 05:10:00;;;;;;;2.13;1.50;;;;;;;;;;7402859;19;20322;-74
2022/12/29 05:12:25;;;;;;;4.95;1.52;;;;;;;;;;7399628;19;20421;-75
2022/12/29 05:14:51;;;;;;;3.30;1.60;;;;;;;;;;7402684;19;19994;-75
2022/12/29 05:17:16;;;;;;;2.05;1.30;;;;;;;;;;7403736;19;19998;-75
2022/12/29 05:19:41;;;;;;;4.13;1.60;;;;;;;;;;7398851;19;20360;-75
2022/12/29 05:22:07;;;;;;;3.38;1.55;;;;;;;;;;7396326;19;20011;-74
2022/12/29 05:24:32;;;;;;;5.95;1.58;;;;;;;;;;7395939;19;19998;-75
2022/12/29 05:26:57;;;;;;;3.95;1.50;;;;;;;;;;7394606;19;20048;-74
2022/12/29 05:29:23;;;;;;;3.70;1.50;;;;;;;;;;7394000;19;19998;-75
2022/12/29 05:31:48;;;;;;;6.82;1.60;;;;;;;;;;7392481;19;20005;-75
2022/12/29 05:34:14;;;;;;;1.70;1.35;;;;;;;;;;7394596;19;19991;-75
2022/12/29 05:36:39;;;;;;;2.78;1.70;;;;;;;;;;7395322;19;20006;-75
2022/12/29 05:39:07;;;;;;;3.28;1.88;;;;;;;;;;7394326;19;19995;-74
2022/12/29 05:41:32;;;;;;;3.08;1.50;;;;;;;;;;7394100;19;20012;-75
2022/12/29 05:43:58;;;;;;;2.38;1.38;;;;;;;;;;7394176;19;20480;-76
2022/12/29 05:46:23;;;;;;;3.47;1.70;;;;;;;;;;7395644;19;20024;-74
2022/12/29 05:48:48;;;;;;;3.45;1.63;;;;;;;;;;7395170;19;20066;-74
2022/12/29 05:51:13;;;;;;;5.65;1.52;;;;;;;;;;7392965;19;19997;-75
2022/12/29 05:53:39;;;;;;;3.08;1.50;;;;;;;;;;7393922;19;19998;-74
2022/12/29 05:56:04;;;;;;;3.22;1.33;;;;;;;;;;7395092;19;20047;-73
2022/12/29 05:58:30;;;;;;;4.68;1.70;;;;;;;;;;7393290;19;20020;-74
2022/12/29 06:00:55;;;;;;;3.08;1.52;;;;;;;;;;7394304;19;20376;-75
2022/12/29 06:03:20;;;;;;;4.13;1.70;;;;;;;;;;7389344;19;19995;-75
2022/12/29 06:05:46;;;;;;;6.97;2.25;;;;;;;;;;7395174;19;19994;-74
2022/12/29 06:08:12;;;;;;;2.33;1.30;;;;;;;;;;7394873;19;20009;-73
2022/12/29 06:10:37;;;;;;;3.80;1.90;;;;;;;;;;7392890;19;20107;-75
2022/12/29 06:13:05;;;;;;;1.40;1.17;;;;;;;;;;7393417;19;19991;-75
2022/12/29 06:15:31;;;;;;;5.22;1.48;;;;;;;;;;7393579;19;20353;-74
2022/12/29 06:17:56;;;;;;;2.58;1.35;;;;;;;;;;7394642;19;20002;-74
2022/12/29 06:20:21;;;;;;;2.88;1.30;;;;;;;;;;7393274;19;20475;-75
2022/12/29 06:22:47;;;;;;;2.30;1.50;;;;;;;;;;7391159;19;19991;-75
2022/12/29 06:25:12;;;;;;;6.65;1.92;;;;;;;;;;7392813;19;20005;-75
2022/12/29 06:27:38;;;;;;;2.67;1.42;;;;;;;;;;7394535;19;19998;-73
2022/12/29 06:30:03;;;;;;;2.60;1.40;;;;;;;;;;7395523;19;20340;-76
2022/12/29 06:32:29;;;;;;;2.80;1.42;;;;;;;;;;7391775;19;20377;-75
2022/12/29 06:34:54;;;;;;;2.72;1.50;;;;;;;;;;7394353;19;19998;-73
2022/12/29 06:37:19;;;;;;;8.13;1.80;;;;;;;;;;7393890;19;19998;-74
2022/12/29 06:39:45;;;;;;;4.97;1.73;;;;;;;;;;7391784;19;20002;-74
2022/12/29 06:42:10;;;;;;;3.42;1.90;;;;;;;;;;7393887;19;20529;-74
2022/12/29 06:44:35;;;;;;;3.33;1.50;;;;;;;;;;7396087;19;20015;-74
2022/12/29 06:47:01;;;;;;;2.92;1.50;;;;;;;;;;7392568;19;20013;-74
2022/12/29 06:49:26;;;;;;;3.50;1.48;;;;;;;;;;7388928;19;19994;-75
2022/12/29 06:51:52;;;;;;;3.03;1.50;;;;;;;;;;7393065;19;20487;-74
2022/12/29 06:54:17;;;;;;;2.88;1.55;;;;;;;;;;7396197;19;20503;-73
2022/12/29 06:56:42;;;;;;;3.58;1.60;;;;;;;;;;7397938;19;20081;-74
2022/12/29 06:59:15;;;;;;;6.28;1.70;;;;;;;;;;7396484;19;19999;-74
2022/12/29 07:01:50;;;;;;;3.72;1.60;;;;;;;;;;7394584;19;20023;-75
2022/12/29 07:04:15;;;;;;;5.60;1.65;;;;;;;;;;7395066;19;20084;-73
2022/12/29 07:06:41;;;;;;;5.28;1.75;;;;;;;;;;7397176;19;19987;-74
2022/12/29 07:09:07;;;;;;;3.00;1.60;;;;;;;;;;7393048;19;19998;-74
2022/12/29 07:11:33;;;;;;;4.32;1.70;;;;;;;;;;7394345;19;20403;-75
2022/12/29 07:13:59;;;;;;;3.92;2.10;;;;;;;;;;7395151;19;19990;-73
2022/12/29 07:16:24;;;;;;;3.42;1.75;;;;;;;;;;7397241;19;20075;-74
2022/12/29 07:18:50;;;;;;;3.10;2.13;;;;;;;;;;7395340;19;20018;-75
2022/12/29 07:21:15;;;;;;;3.53;1.65;;;;;;;;;;7396046;19;20014;-74
2022/12/29 07:23:40;;;;;;;4.28;2.30;;;;;;;;;;7394029;19;20467;-73
2022/12/29 07:26:08;;;;;;;2.85;1.60;;;;;;;;;;7395543;19;20014;-74
2022/12/29 07:28:35;;;;;;;4.95;2.10;;;;;;;;;;7391671;19;20005;-73
2022/12/29 07:31:00;;;;;;;2.83;1.45;;;;;;;;;;7391327;19;19998;-73
2022/12/29 07:33:28;;;;;;;2.55;1.52;;;;;;;;;;7390414;19;20021;-74
2022/12/29 07:35:57;;;;;;;3.20;1.83;;;;;;;;;;7391136;19;19998;-74
2022/12/29 07:38:23;;;;;;;4.63;1.98;;;;;;;;;;7391492;19;20013;-73
2022/12/29 07:40:48;;;;;;;3.35;1.70;;;;;;;;;;7389834;19;19991;-74
2022/12/29 07:43:13;;;;;;;5.13;1.80;;;;;;;;;;7387486;19;20001;-70
2022/12/29 07:45:39;;;;;;;3.45;1.92;;;;;;;;;;7391085;19;20019;-70
2022/12/29 07:48:07;;;;;;;5.10;1.90;;;;;;;;;;7393583;19;20014;-71
2022/12/29 07:50:33;;;;;;;7.18;2.00;;;;;;;;;;7391316;19;20070;-72
2022/12/29 07:52:58;;;;;;;6.13;2.25;;;;;;;;;;7391266;19;20002;-70
2022/12/29 07:55:24;;;;;;;2.15;1.42;;;;;;;;;;7395152;19;19995;-70
2022/12/29 07:57:49;;;;;;;4.65;1.80;;;;;;;;;;7391513;19;20003;-70
2022/12/29 08:00:15;;;;;;;4.10;1.85;;;;;;;;;;7389921;19;20023;-71
2022/12/29 08:02:40;;;;;;;4.20;1.80;;;;;;;;;;7387115;19;20034;-69
2022/12/29 08:05:05;;;;;;;3.85;2.08;;;;;;;;;;7394841;19;19999;-70
2022/12/29 08:07:31;;;;;;;4.43;2.00;;;;;;;;;;7393395;19;19999;-70
2022/12/29 08:09:57;;;;;;;5.28;2.03;;;;;;;;;;7389568;19;19998;-70
2022/12/29 08:12:22;;;;;;;6.25;2.15;;;;;;;;;;7389864;19;19990;-69
2022/12/29 08:14:47;;;;;;;8.90;2.95;;;;;;;;;;7389251;19;20055;-72
2022/12/29 08:17:12;;;;;;;4.13;2.35;;;;;;;;;;7391401;19;20463;-72
2022/12/29 08:19:38;;;;;;;4.20;1.98;;;;;;;;;;7390024;19;19994;-72
2022/12/29 08:22:03;;;;;;;6.72;1.85;;;;;;;;;;7390221;19;19999;-72
2022/12/29 08:24:29;;;;;;;5.35;2.10;;;;;;;;;;7391602;19;20385;-72
2022/12/29 08:26:54;;;;;;;3.70;1.83;;;;;;;;;;7394641;19;19994;-71
2022/12/29 08:29:21;;;;;;;6.15;2.22;;;;;;;;;;7393460;19;20060;-71
2022/12/29 08:31:46;;;;;;;4.05;2.03;;;;;;;;;;7391146;19;19998;-73
2022/12/29 08:34:12;;;;;;;5.38;2.00;;;;;;;;;;7389217;19;20018;-72
2022/12/29 08:36:37;;;;;;;5.22;2.25;;;;;;;;;;7391001;19;20002;-73
2022/12/29 08:39:02;;;;;;;2.67;1.67;;;;;;;;;;7391581;19;19995;-72
2022/12/29 08:41:28;;;;;;;7.07;2.30;;;;;;;;;;7394024;19;20006;-71
2022/12/29 08:43:53;;;;;;;4.68;2.05;;;;;;;;;;7391274;19;20622;-72
2022/12/29 08:46:19;;;;;;;4.95;2.22;;;;;;;;;;7388227;19;20452;-73
2022/12/29 08:48:45;;;;;;;5.90;2.33;;;;;;;;;;7390193;19;20011;-75
2022/12/29 08:51:10;;;;;;;5.20;2.35;;;;;;;;;;7391640;19;19994;-73
2022/12/29 08:53:36;;;;;;;6.43;3.00;;;;;;;;;;7390251;19;19994;-73
2022/12/29 08:56:02;;;;;;;4.15;1.95;;;;;;;;;;7390263;19;19995;-73
2022/12/29 08:58:27;;;;;;;5.20;2.03;;;;;;;;;;7387935;19;20449;-72
2022/12/29 09:00:54;;;;;;;5.70;2.17;;;;;;;;;;7389362;19;19995;-73
2022/12/29 09:03:21;;;;;;;6.65;2.55;;;;;;;;;;7391789;19;19995;-73
2022/12/29 09:05:53;;;;;;;5.65;2.55;;;;;;;;;;7392243;19;20006;-73
2022/12/29 09:08:19;;;;;;;6.82;2.60;;;;;;;;;;7392597;19;20002;-73
2022/12/29 09:10:45;;;;;;;3.88;2.33;;;;;;;;;;7392585;19;20033;-74
2022/12/29 09:13:12;;;;;;;4.18;2.47;;;;;;;;;;7385520;19;20006;-74
2022/12/29 09:15:37;;;;;;;8.98;2.55;;;;;;;;;;7378801;19;20013;-73
2022/12/29 09:18:03;;;;;;;5.78;2.72;;;;;;;;;;7385411;19;20002;-74
2022/12/29 09:20:28;;;;;;;6.35;2.53;;;;;;;;;;7393620;19;20041;-73
2022/12/29 09:22:54;;;;;;;5.55;2.75;;;;;;;;;;7394800;19;20019;-73
2022/12/29 09:25:21;;;;;;;4.15;2.40;;;;;;;;;;7395653;19;20467;-73
2022/12/29 09:27:47;;;;;;;6.75;2.70;;;;;;;;;;7396661;19;20062;-72
2022/12/29 09:30:14;;;;;;;8.13;3.22;;;;;;;;;;7396473;19;19999;-72
2022/12/29 09:32:40;;;;;;;6.50;2.92;;;;;;;;;;7393004;19;20006;-73
2022/12/29 09:35:06;;;;;;;10.48;3.45;;;;;;;;;;7396316;19;20002;-73
2022/12/29 09:37:31;;;;;;;6.32;2.55;;;;;;;;;;7397208;19;20050;-72
2022/12/29 09:39:56;;;;;;;4.47;2.63;;;;;;;;;;7394815;19;20019;-72
2022/12/29 09:42:38;;;;;;;9.52;3.38;;;;;;;;;;7394338;19;20007;-73
2022/12/29 09:45:30;;;;;;;6.65;2.88;;;;;;;;;;7394839;19;20667;-72
2022/12/29 09:47:55;;;;;;;6.10;2.70;;;;;;;;;;7394895;19;20511;-73
2022/12/29 09:50:26;;;;;;;9.43;2.92;;;;;;;;;;7397872;19;20024;-73
2022/12/29 09:53:04;;;;;;;4.57;2.42;;;;;;;;;;7390947;19;20618;-73
2022/12/29 09:55:44;;;;;;;5.68;2.30;;;;;;;;;;7394798;19;20033;-73
2022/12/29 09:58:57;;;;;;;6.38;2.95;;;;;;;;;;7395691;19;20437;-74
2022/12/29 10:01:32;;;;;;;3.22;1.98;;;;;;;;;;7391342;19;20003;-74
2022/12/29 10:03:59;;;;;;;9.63;2.40;;;;;;;;;;7393690;19;20528;-73
2022/12/29 10:06:58;;;;;;;3.65;1.65;;;;;;;;;;7393482;19;20000;-74
2022/12/29 10:09:36;;;;;;;3.28;1.70;;;;;;;;;;7397430;19;20003;-73
2022/12/29 10:12:28;;;;;;;4.05;1.60;;;;;;;;;;7394320;19;20003;-72
2022/12/29 10:15:02;;;;;;;3.05;1.40;;;;;;;;;;7394517;19;20029;-72
2022/12/29 10:17:57;;;;;;;3.20;1.75;;;;;;;;;;7393178;19;19999;-72
2022/12/29 10:20:31;;;;;;;1.33;1.23;;;;;;;;;;7393291;19;20001;-72
2022/12/29 10:23:14;;;;;;;5.43;2.47;;;;;;;;;;7391927;19;19999;-73
2022/12/29 10:25:41;;;;;;;4.63;1.60;;;;;;;;;;7393691;19;19999;-72
2022/12/29 10:28:30;;;;;;;2.15;1.40;;;;;;;;;;7393052;19;20107;-72
2022/12/29 10:30:58;;;;;;;2.13;1.17;;;;;;;;;;7393248;19;20003;-72
2022/12/29 10:33:31;;;;;;;3.95;1.35;;;;;;;;;;7392804;19;19998;-72
2022/12/29 10:35:58;;;;;;;4.25;1.40;;;;;;;;;;7394602;19;19998;-71
2022/12/29 10:38:41;;;;;;;3.03;1.30;;;;;;;;;;7392960;19;20011;-72
2022/12/29 10:41:21;;;;;;;1.90;1.20;;;;;;;;;;7393939;19;20464;-72
2022/12/29 10:43:52;;;;;;;1.33;0.90;;;;;;;;;;7396490;19;19995;-71
2022/12/29 10:46:21;;;;;;;2.53;1.08;;;;;;;;;;7395343;19;20400;-72
2022/12/29 10:48:47;;;;;;;1.65;0.98;;;;;;;;;;7392438;19;20007;-72
2022/12/29 10:51:24;;;;;;;1.38;0.88;;;;;;;;;;7393787;19;19995;-71
2022/12/29 10:54:01;;;;;;;2.33;1.10;;;;;;;;;;7392442;19;20090;-71
2022/12/29 10:56:35;;;;;;;2.40;1.27;;;;;;;;;;7394008;19;20005;-72
2022/12/29 10:59:16;;;;;;;0.68;0.68;;;;;;;;;;7393618;19;20010;-72
2022/12/29 11:02:09;;;;;;;3.97;1.10;;;;;;;;;;7392089;19;20006;-73
2022/12/29 11:04:40;;;;;;;2.55;0.88;;;;;;;;;;7392173;19;20006;-71
2022/12/29 11:07:06;;;;;;;2.10;1.00;;;;;;;;;;7393449;19;19998;-73
2022/12/29 11:09:36;;;;;;;3.05;1.00;;;;;;;;;;7393750;19;19999;-73
2022/12/29 11:12:18;;;;;;;3.38;1.30;;;;;;;;;;7327945;19;20010;-72
2022/12/29 11:14:44;;;;;;;2.60;1.15;;;;;;;;;;7391931;19;20082;-72
2022/12/29 11:17:15;;;;;;;1.58;0.90;;;;;;;;;;7396670;19;19995;-72
2022/12/29 11:19:41;;;;;;;2.53;1.27;;;;;;;;;;7392077;19;20063;-73
2022/12/29 11:22:14;;;;;;;1.10;0.93;;;;;;;;;;7392035;19;19999;-72
2022/12/29 11:24:45;;;;;;;2.15;1.05;;;;;;;;;;7390383;19;20464;-73
2022/12/29 11:27:25;;;;;;;1.33;0.80;;;;;;;;;;7393198;19;19998;-73
2022/12/29 11:29:52;;;;;;;1.60;0.70;;;;;;;;;;7401871;19;20058;-73
2022/12/29 11:32:23;;;;;;;3.25;1.10;;;;;;;;;;7403182;19;19999;-72
2022/12/29 11:34:49;;;;;;;2.15;1.20;;;;;;;;;;7404971;19;20425;-73
2022/12/29 11:37:17;;;;;;;3.35;1.13;;;;;;;;;;7393940;19;20008;-73
2022/12/29 11:39:50;;;;;;;2.85;0.85;;;;;;;;;;7391536;19;19995;-73
2022/12/29 11:42:18;;;;;;;1.67;0.90;;;;;;;;;;7392243;19;20003;-73
2022/12/29 11:44:49;;;;;;;1.38;0.68;;;;;;;;;;7391184;19;20009;-71
2022/12/29 11:47:28;;;;;;;1.98;0.80;;;;;;;;;;7393344;19;19999;-74
2022/12/29 11:49:58;;;;;;;3.78;1.10;;;;;;;;;;7397146;19;20007;-73
2022/12/29 11:52:26;;;;;;;1.95;0.77;;;;;;;;;;7390403;19;20358;-73
2022/12/29 11:54:54;;;;;;;4.18;1.17;;;;;;;;;;7393727;19;20006;-73
2022/12/29 11:57:21;;;;;;;2.92;1.23;;;;;;;;;;7391719;19;20030;-74
2022/12/29 11:59:58;;;;;;;5.57;1.08;;;;;;;;;;7393471;19;20325;-74
2022/12/29 12:02:42;;;;;;;1.58;0.98;;;;;;;;;;7388442;19;20480;-73
2022/12/29 12:05:33;;;;;;;6.55;1.17;;;;;;;;;;7391961;19;20389;-73
2022/12/29 12:08:09;;;;;;;5.57;1.00;;;;;;;;;;7376984;19;20006;-73
2022/12/29 12:10:46;;;;;;;3.47;1.30;;;;;;;;;;7389078;19;20002;-71
2022/12/29 12:13:22;;;;;;;2.40;0.93;;;;;;;;;;7386605;19;20520;-72
2022/12/29 12:15:55;;;;;;;5.15;1.77;;;;;;;;;;7387128;19;20006;-73
2022/12/29 12:18:49;;;;;;;5.40;1.48;;;;;;;;;;7385613;19;20357;-72
2022/12/29 12:21:31;;;;;;;4.25;1.33;;;;;;;;;;7387312;19;20027;-72
2022/12/29 12:24:15;;;;;;;3.10;1.30;;;;;;;;;;7386124;19;20405;-72
2022/12/29 12:27:02;;;;;;;1.15;0.90;;;;;;;;;;7386835;19;20091;-72
2022/12/29 12:29:43;;;;;;;3.85;1.23;;;;;;;;;;7385866;19;20074;-72
2022/12/29 12:32:08;;;;;;;3.88;1.20;;;;;;;;;;7393590;19;20010;-72
2022/12/29 12:34:43;;;;;;;1.20;1.10;;;;;;;;;;7392447;19;20460;-72
2022/12/29 12:37:22;;;;;;;1.65;1.10;;;;;;;;;;7390474;19;20017;-73
2022/12/29 12:40:22;;;;;;;1.15;1.05;;;;;;;;;;7371036;19;20488;-74
2022/12/29 12:42:54;;;;;;;2.70;1.20;;;;;;;;;;7390428;19;19998;-72
2022/12/29 12:45:38;;;;;;;;;;;;;;;;;;7395290;19;19998;-74
2022/12/29 12:48:47;;;;;;;3.45;1.20;;;;;;;;;;7396742;19;19911;-74
2022/12/29 12:51:38;;;;;;;2.55;1.45;;;;;;;;;;7392935;19;20539;-73
2022/12/29 12:54:28;;;;;;;2.30;1.30;;;;;;;;;;7396362;19;20003;-72
2022/12/29 12:57:08;;;;;;;3.00;1.00;;;;;;;;;;7396966;19;20011;-73
2022/12/29 12:59:46;;;;;;;4.80;1.50;;;;;;;;;;7395800;19;20003;-72
2022/12/29 13:02:42;;;;;;;2.17;1.10;;;;;;;;;;7381184;19;20421;-72
2022/12/29 13:05:32;;;;;;;8.10;2.03;;;;;;;;;;7391841;19;20006;-72
2022/12/29 13:08:30;;;;;;;5.72;1.58;;;;;;;;;;7391053;19;20029;-73
2022/12/29 13:11:21;;;;;;;4.10;1.20;;;;;;;;;;7390438;19;20441;-72
2022/12/29 13:14:19;;;;;;;3.03;1.30;;;;;;;;;;7388749;19;20021;-73
2022/12/29 13:17:01;;;;;;;2.78;1.30;;;;;;;;;;7383364;19;20058;-72
2022/12/29 13:19:57;;;;;;;0.95;0.88;;;;;;;;;;7389371;19;20010;-72
2022/12/29 13:22:31;;;;;;;5.25;1.30;;;;;;;;;;7390245;19;20002;-72
2022/12/29 13:25:02;;;;;;;3.38;1.33;;;;;;;;;;7392971;19;20019;-74
2022/12/29 13:27:42;;;;;;;2.10;1.27;;;;;;;;;;7390135;19;20013;-73
2022/12/29 13:30:12;;;;;;;2.90;1.33;;;;;;;;;;7392907;19;20034;-74
2022/12/29 13:32:37;;;;;;;3.20;1.20;;;;;;;;;;7385398;19;23037;-75
2022/12/29 13:35:29;;;;;;;3.72;1.40;;;;;;;;;;7390122;19;20528;-75
2022/12/29 13:38:03;;;;;;;3.95;1.42;;;;;;;;;;7388542;19;20014;-74
2022/12/29 13:40:34;;;;;;;2.45;1.13;;;;;;;;;;7389256;19;20006;-74
2022/12/29 13:43:01;;;;;;;4.93;1.23;;;;;;;;;;7383481;19;20013;-74
2022/12/29 13:45:31;;;;;;;3.42;1.48;;;;;;;;;;7391287;19;20535;-74
2022/12/29 13:48:23;;;;;;;5.93;1.60;;;;;;;;;;7389459;19;20010;-73
2022/12/29 13:50:53;;;;;;;7.28;1.65;;;;;;;;;;7390501;19;20023;-73
2022/12/29 13:53:25;;;;;;;4.13;1.38;;;;;;;;;;7388324;19;20007;-74
2022/12/29 13:56:12;;;;;;;5.05;1.10;;;;;;;;;;7387703;19;20385;-75
2022/12/29 13:58:57;;;;;;;3.17;1.40;;;;;;;;;;7389616;19;20077;-71
2022/12/29 14:03:59;;;;;;;3.63;1.35;;;;;;;;;;7388639;19;20010;-70
2022/12/29 14:06:34;;;;;;;3.50;1.23;;;;;;;;;;7389901;19;20014;-72
2022/12/29 14:09:03;;;;;;;4.80;1.30;;;;;;;;;;7391720;19;19999;-72
2022/12/29 14:11:40;;;;;;;3.65;1.30;;;;;;;;;;7385924;19;20003;-73
2022/12/29 14:14:25;;;;;;;3.55;1.08;;;;;;;;;;7390341;19;20006;-73
2022/12/29 14:16:52;;;;;;;3.38;1.10;;;;;;;;;;7384020;19;20523;-73
2022/12/29 14:19:19;;;;;;;2.45;1.08;;;;;;;;;;7388580;19;20070;-72
2022/12/29 14:21:57;;;;;;;3.13;1.23;;;;;;;;;;7387457;19;20006;-73
2022/12/29 14:24:34;;;;;;;3.10;1.17;;;;;;;;;;7388413;19;20006;-72
2022/12/29 14:27:09;;;;;;;2.25;1.20;;;;;;;;;;7387489;19;20003;-72
2022/12/29 14:29:40;;;;;;;5.72;1.42;;;;;;;;;;7388858;19;20652;-73
2022/12/29 14:32:21;;;;;;;;;;;;;;;;;;7385115;19;20089;-73
2022/12/29 14:34:47;;;;;;;3.05;1.00;;;;;;;;;;7382745;19;19919;-72
2022/12/29 14:37:35;;;;;;;3.33;1.60;;;;;;;;;;7384321;19;20010;-74
2022/12/29 14:40:06;;;;;;;5.90;1.20;;;;;;;;;;7386047;19;20100;-72
2022/12/29 14:42:32;;;;;;;2.20;0.77;;;;;;;;;;7381676;19;20524;-71
2022/12/29 14:45:21;;;;;;;7.15;1.45;;;;;;;;;;7388299;19;20014;-72
2022/12/29 14:47:48;;;;;;;4.78;0.95;;;;;;;;;;7384858;19;20468;-73
2022/12/29 14:50:15;;;;;;;4.30;1.05;;;;;;;;;;7391729;19;19999;-73
2022/12/29 14:52:47;;;;;;;3.00;1.15;;;;;;;;;;7380162;19;20007;-73
2022/12/29 14:55:15;;;;;;;2.35;0.85;;;;;;;;;;7390777;19;20027;-73
2022/12/29 14:57:42;;;;;;;2.80;1.10;;;;;;;;;;7385378;19;20006;-72
2022/12/29 15:00:32;;;;;;;1.88;1.05;;;;;;;;;;7386125;19;19999;-71
2022/12/29 15:03:06;;;;;;;2.90;1.00;;;;;;;;;;7385379;19;20013;-70
2022/12/29 15:05:37;;;;;;;6.70;1.17;;;;;;;;;;7386127;19;19999;-70
2022/12/29 15:08:04;;;;;;;1.45;0.93;;;;;;;;;;7382505;19;20002;-73
2022/12/29 15:10:38;;;;;;;5.40;1.23;;;;;;;;;;7386122;19;20010;-71
2022/12/29 15:13:13;;;;;;;6.22;1.70;;;;;;;;;;7386336;19;20062;-71
2022/12/29 15:15:39;;;;;;;6.43;1.30;;;;;;;;;;7385306;19;20661;-72
2022/12/29 15:18:24;;;;;;;1.60;1.10;;;;;;;;;;7387459;19;20125;-72
2022/12/29 15:21:01;;;;;;;3.72;1.23;;;;;;;;;;7387815;19;20002;-71
2022/12/29 15:23:28;;;;;;;2.78;1.25;;;;;;;;;;7384490;19;20002;-77
2022/12/29 15:25:59;;;;;;;3.15;1.17;;;;;;;;;;7395056;19;20012;-76
2022/12/29 15:28:26;;;;;;;5.72;1.30;;;;;;;;;;7395786;19;20003;-77
2022/12/29 15:30:53;;;;;;;7.10;1.48;;;;;;;;;;7396142;19;20429;-77
2022/12/29 15:33:22;;;;;;;3.95;1.40;;;;;;;;;;7389179;19;20018;-77
2022/12/29 15:35:52;;;;;;;5.38;1.23;;;;;;;;;;7390661;19;20002;-77
2022/12/29 15:38:29;;;;;;;9.63;1.40;;;;;;;;;;7393436;19;20005;-77
2022/12/29 15:41:07;;;;;;;2.30;1.02;;;;;;;;;;7394783;19;20272;-80